Time;durP1;ratioP1;P1;durP2;ratioP2;P2;SDS_P1;SDS_P2;PMS_P1;PMS_P2;Temp;Humidity;BMP_temperature;BMP_pressure;BME280_temperature;BME280_humidity;BME280_pressure;Samples;Min_cycle;Max_cycle;Signal;HPM_P1;HPM_P2
2021/08/07 00:01:59;;;;;;;;;;;;;;;22.32;28.72;96964.69;5045725;28;863;-86
2021/08/07 00:04:26;;;;;;;;;;;;;;;22.41;28.44;96977.28;5028190;28;1170;-86
2021/08/07 00:06:51;;;;;;;;;;;;;;;22.48;28.47;96962.78;5045063;28;893;-86
2021/08/07 00:09:17;;;;;;;;;;;;;;;22.52;28.51;96971.91;5027902;28;1298;-86
2021/08/07 00:11:42;;;;;;;;;;;;;;;22.41;28.48;96974.47;5045355;28;595;-87
2021/08/07 00:14:08;;;;;;;;;;;;;;;22.38;28.64;96981.84;5044428;28;890;-86
2021/08/07 00:16:33;;;;;;;;;;;;;;;22.39;28.59;96969.28;5044604;28;1141;-86
2021/08/07 00:18:59;;;;;;;;;;;;;;;22.48;28.68;96968.44;5044492;28;967;-86
2021/08/07 00:21:24;;;;;;;;;;;;;;;22.60;28.53;96967.50;5045753;28;1981;-86
2021/08/07 00:23:50;;;;;;;;;;;;;;;22.60;28.47;96973.16;5044616;28;694;-86
2021/08/07 00:26:15;;;;;;;;;;;;;;;22.44;28.57;96982.03;5028920;28;1180;-86
2021/08/07 00:28:40;;;;;;;;;;;;;;;22.45;28.84;96977.94;5043720;28;737;-86
2021/08/07 00:31:06;;;;;;;;;;;;;;;22.38;28.93;96981.06;5059746;28;1204;-85
2021/08/07 00:33:31;;;;;;;;;;;;;;;22.51;28.63;96981.69;5027247;28;1175;-86
2021/08/07 00:35:57;;;;;;;;;;;;;;;22.41;28.92;96971.63;5044647;28;1263;-86
2021/08/07 00:38:23;;;;;;;;;;;;;;;22.48;28.98;96976.97;5026551;28;1458;-86
2021/08/07 00:40:50;;;;;;;;;;;;;;;22.53;28.93;96974.25;5044417;28;1996;-85
2021/08/07 00:43:17;;;;;;;;;;;;;;;22.55;28.92;96979.47;5027501;28;1274;-86
2021/08/07 00:45:42;;;;;;;;;;;;;;;22.39;29.12;96977.00;5011840;28;1159;-85
2021/08/07 00:48:14;;;;;;;;;;;;;;;22.42;29.27;96978.88;5043084;28;992;-85
2021/08/07 00:50:48;;;;;;;;;;;;;;;22.49;29.21;96978.56;5044669;28;1336;-86
2021/08/07 00:53:19;;;;;;;;;;;;;;;22.43;29.30;96969.88;5043306;28;1267;-85
2021/08/07 00:55:44;;;;;;;;;;;;;;;22.46;29.26;96966.09;5027405;28;1147;-86
2021/08/07 00:58:10;;;;;;;;;;;;;;;22.41;29.50;96960.28;5041508;28;1295;-86
2021/08/07 01:00:36;;;;;;;;;;;;;;;22.41;29.68;96954.63;5043478;28;1879;-86
2021/08/07 01:03:06;;;;;;;;;;;;;;;22.43;29.55;96957.75;5059702;28;1227;-86
2021/08/07 01:05:36;;;;;;;;;;;;;;;22.54;29.43;96964.53;5043793;28;1315;-86
2021/08/07 01:08:22;;;;;;;;;;;;;;;22.54;29.19;96964.53;5043427;28;1265;-86
2021/08/07 01:11:04;;;;;;;;;;;;;;;22.51;29.13;96970.34;5029988;28;1217;-86
2021/08/07 01:13:41;;;;;;;;;;;;;;;22.37;29.26;96974.63;5059236;28;1551;-85
2021/08/07 01:16:12;;;;;;;;;;;;;;;22.43;29.51;96966.25;5026781;28;1190;-85
2021/08/07 01:18:38;;;;;;;;;;;;;;;22.41;29.41;96977.28;5025782;28;1198;-85
2021/08/07 01:21:08;;;;;;;;;;;;;;;22.50;29.29;96963.09;5042951;28;1906;-85
2021/08/07 01:23:58;;;;;;;;;;;;;;;22.51;29.22;96959.00;5042566;28;1182;-85
2021/08/07 01:26:33;;;;;;;;;;;;;;;22.62;29.15;96976.28;5043195;28;1312;-85
2021/08/07 01:29:14;;;;;;;;;;;;;;;22.58;29.25;96981.34;5042507;28;1253;-85
2021/08/07 01:31:39;;;;;;;;;;;;;;;22.52;29.75;96980.41;5025978;28;1204;-85
2021/08/07 01:34:09;;;;;;;;;;;;;;;22.45;29.88;96986.44;5026231;28;1267;-87
2021/08/07 01:36:43;;;;;;;;;;;;;;;22.53;29.81;96984.81;5043115;28;1271;-86
2021/08/07 01:39:14;;;;;;;;;;;;;;;22.44;30.37;96999.03;5042506;28;1152;-86
2021/08/07 01:41:42;;;;;;;;;;;;;;;22.55;30.10;96985.16;5042731;28;1983;-87
2021/08/07 01:44:15;;;;;;;;;;;;;;;22.57;29.89;97000.41;5042942;28;1194;-86
2021/08/07 01:46:51;;;;;;;;;;;;;;;22.66;30.06;96988.25;5060090;28;1307;-86
2021/08/07 01:49:23;;;;;;;;;;;;;;;22.60;29.89;96981.66;5026236;28;1122;-87
2021/08/07 01:51:57;;;;;;;;;;;;;;;22.62;29.97;96984.81;5027650;28;1245;-87
2021/08/07 01:54:30;;;;;;;;;;;;;;;22.65;29.97;96974.56;5026918;28;1430;-87
2021/08/07 01:57:03;;;;;;;;;;;;;;;22.78;29.90;96978.75;5027228;28;1363;-87
2021/08/07 01:59:34;;;;;;;;;;;;;;;22.62;30.15;96976.28;5026661;28;1201;-86
2021/08/07 02:02:00;;;;;;;;;;;;;;;22.62;30.57;96965.75;5026799;28;1910;-86
2021/08/07 02:04:39;;;;;;;;;;;;;;;22.59;30.50;96954.59;5042175;28;1183;-86
2021/08/07 02:07:12;;;;;;;;;;;;;;;22.66;30.43;96937.22;5043078;28;1359;-86
2021/08/07 02:09:40;;;;;;;;;;;;;;;22.74;30.57;96918.63;5009837;28;1155;-86
2021/08/07 02:12:06;;;;;;;;;;;;;;;22.73;30.34;96925.53;5026007;28;1269;-86
2021/08/07 02:14:44;;;;;;;;;;;;;;;22.68;30.82;96940.34;5056799;28;1337;-86
2021/08/07 02:17:14;;;;;;;;;;;;;;;22.74;30.57;96949.00;5026626;28;1306;-85
2021/08/07 02:19:41;;;;;;;;;;;;;;;22.73;30.64;96953.09;5041528;28;1973;-87
2021/08/07 02:22:08;;;;;;;;;;;;;;;22.69;30.88;96952.47;5025570;28;1149;-86
2021/08/07 02:24:37;;;;;;;;;;;;;;;22.75;30.70;96957.06;5009729;28;1263;-85
2021/08/07 02:27:04;;;;;;;;;;;;;;;22.75;30.49;96957.06;5025713;28;921;-86
2021/08/07 02:29:30;;;;;;;;;;;;;;;22.73;30.95;96965.22;5024989;28;1204;-85
2021/08/07 02:32:07;;;;;;;;;;;;;;;22.75;30.76;96985.41;5041509;28;1393;-86
2021/08/07 02:34:33;;;;;;;;;;;;;;;22.65;31.16;96972.53;5024881;28;1194;-85
2021/08/07 02:37:01;;;;;;;;;;;;;;;22.74;30.69;96966.00;5026001;28;1246;-85
2021/08/07 02:39:31;;;;;;;;;;;;;;;22.75;30.98;96962.72;5041710;28;1187;-86
2021/08/07 02:41:58;;;;;;;;;;;;;;;22.65;31.23;96969.69;5025441;28;1980;-84
2021/08/07 02:44:27;;;;;;;;;;;;;;;22.79;30.97;96986.00;5010187;28;1185;-84
2021/08/07 02:46:52;;;;;;;;;;;;;;;22.83;30.79;96986.63;5041542;28;1138;-85
2021/08/07 02:49:18;;;;;;;;;;;;;;;22.71;31.04;96990.47;5025201;28;1262;-86
2021/08/07 02:51:49;;;;;;;;;;;;;;;22.85;30.89;96995.47;5041772;28;1386;-86
2021/08/07 02:54:14;;;;;;;;;;;;;;;22.82;30.77;97007.75;5025506;28;1241;-86
2021/08/07 02:56:40;;;;;;;;;;;;;;;22.77;30.92;97004.78;5025424;28;1181;-86
2021/08/07 02:59:07;;;;;;;;;;;;;;;22.78;30.81;97012.78;5025181;28;1139;-86
2021/08/07 03:01:35;;;;;;;;;;;;;;;22.82;30.85;97024.75;5057634;28;1976;-85
2021/08/07 03:04:01;;;;;;;;;;;;;;;22.84;30.74;97033.56;5041301;28;911;-86
2021/08/07 03:06:28;;;;;;;;;;;;;;;22.81;30.90;97040.22;5025264;28;1309;-86
2021/08/07 03:08:55;;;;;;;;;;;;;;;22.77;30.91;97050.94;5040729;28;583;-85
2021/08/07 03:11:21;;;;;;;;;;;;;;;22.75;31.15;97052.69;5057690;28;1169;-86
2021/08/07 03:13:50;;;;;;;;;;;;;;;22.84;30.99;97050.59;5025308;28;1131;-86
2021/08/07 03:16:19;;;;;;;;;;;;;;;22.88;30.90;97051.25;5025256;28;1298;-86
2021/08/07 03:18:46;;;;;;;;;;;;;;;22.79;31.28;97048.41;5024447;28;1197;-86
2021/08/07 03:21:13;;;;;;;;;;;;;;;22.81;31.37;97045.88;5059907;28;1901;-86
2021/08/07 03:23:54;;;;;;;;;;;;;;;22.92;30.85;97061.66;5030909;28;1194;-86
2021/08/07 03:26:22;;;;;;;;;;;;;;;22.87;30.96;97061.00;5012832;28;1336;-86
2021/08/07 03:28:48;;;;;;;;;;;;;;;22.73;31.31;97067.31;5028827;28;1166;-86
2021/08/07 03:31:17;;;;;;;;;;;;;;;22.79;31.47;97068.25;5045032;28;1090;-86
2021/08/07 03:33:43;;;;;;;;;;;;;;;22.79;31.44;97073.13;5044447;28;1138;-86
2021/08/07 03:36:11;;;;;;;;;;;;;;;22.93;30.95;97086.69;5029324;28;1280;-86
2021/08/07 03:38:38;;;;;;;;;;;;;;;22.95;30.91;97084.19;5028023;28;1224;-86
2021/08/07 03:41:04;;;;;;;;;;;;;;;22.83;31.27;97085.13;5028000;28;1934;-86
2021/08/07 03:43:29;;;;;;;;;;;;;;;22.92;31.24;97073.78;5028352;28;1322;-86
2021/08/07 03:45:57;;;;;;;;;;;;;;;22.91;31.26;97094.13;5029047;28;1296;-85
2021/08/07 03:48:25;;;;;;;;;;;;;;;22.90;31.20;97089.69;5027931;28;1230;-86
2021/08/07 03:50:51;;;;;;;;;;;;;;;23.00;30.99;97094.09;5044743;28;1199;-85
2021/08/07 03:53:25;;;;;;;;;;;;;;;23.03;30.87;97095.97;5028594;28;1467;-86
2021/08/07 03:55:53;;;;;;;;;;;;;;;23.09;30.95;97106.19;5028859;28;1281;-85
2021/08/07 03:58:18;;;;;;;;;;;;;;;22.93;31.35;97102.94;5027885;28;1341;-86
2021/08/07 04:01:00;;;;;;;;;;;;;;;22.95;31.34;97106.06;5044904;28;1901;-86
2021/08/07 04:03:30;;;;;;;;;;;;;;;22.98;31.14;97110.81;5027752;28;1345;-86
2021/08/07 04:05:58;;;;;;;;;;;;;;;23.15;31.06;97112.00;5029314;28;1315;-87
2021/08/07 04:08:24;;;;;;;;;;;;;;;23.02;31.14;97106.53;5028914;28;1199;-87
2021/08/07 04:10:50;;;;;;;;;;;;;;;23.01;31.06;97121.22;5045387;28;678;-87
2021/08/07 04:13:16;;;;;;;;;;;;;;;22.98;31.33;97122.16;5044963;28;1262;-87
2021/08/07 04:15:42;;;;;;;;;;;;;;;22.85;31.51;97114.59;5029829;28;1151;-87
2021/08/07 04:18:10;;;;;;;;;;;;;;;22.96;31.24;97119.03;5044809;28;1256;-87
2021/08/07 04:20:38;;;;;;;;;;;;;;;22.80;31.34;97139.97;5045412;28;1981;-86
2021/08/07 04:23:05;;;;;;;;;;;;;;;22.92;31.31;97146.75;5044841;28;1347;-86
2021/08/07 04:25:34;;;;;;;;;;;;;;;22.86;31.61;97155.88;5045851;28;1234;-87
2021/08/07 04:27:59;;;;;;;;;;;;;;;22.84;31.63;97152.69;5028793;28;1304;-86
2021/08/07 04:30:25;;;;;;;;;;;;;;;22.84;31.67;97158.38;5028491;28;1181;-86
2021/08/07 04:32:51;;;;;;;;;;;;;;;22.90;31.57;97154.94;5043728;28;1174;-87
2021/08/07 04:35:17;;;;;;;;;;;;;;;22.93;31.18;97160.47;5044507;28;1151;-86
2021/08/07 04:37:45;;;;;;;;;;;;;;;22.92;31.23;97163.78;5045119;28;1254;-87
2021/08/07 04:40:11;;;;;;;;;;;;;;;22.88;31.38;97176.06;5061270;28;1902;-87
2021/08/07 04:42:36;;;;;;;;;;;;;;;22.81;31.54;97182.03;5028267;28;1221;-86
2021/08/07 04:45:03;;;;;;;;;;;;;;;22.87;31.25;97180.13;5044097;28;1445;-86
2021/08/07 04:47:28;;;;;;;;;;;;;;;23.01;31.07;97180.78;5028373;28;1158;-87
2021/08/07 04:49:54;;;;;;;;;;;;;;;23.10;30.99;97186.44;5060496;28;1255;-86
2021/08/07 04:52:19;;;;;;;;;;;;;;;22.93;31.23;97205.06;5028262;28;1154;-86
2021/08/07 04:54:45;;;;;;;;;;;;;;;22.88;31.52;97195.13;5028162;28;1471;-86
2021/08/07 04:57:11;;;;;;;;;;;;;;;22.94;31.18;97203.78;5044652;28;634;-87
2021/08/07 04:59:36;;;;;;;;;;;;;;;22.82;31.56;97200.63;5043793;28;890;-86
2021/08/07 05:02:02;;;;;;;;;;;;;;;22.86;31.50;97192.75;5026580;28;1914;-86
2021/08/07 05:04:27;;;;;;;;;;;;;;;23.00;31.38;97199.06;5042118;28;1206;-85
2021/08/07 05:06:53;;;;;;;;;;;;;;;23.13;31.03;97199.69;5026939;28;1227;-87
2021/08/07 05:09:19;;;;;;;;;;;;;;;23.00;31.12;97213.25;5026764;28;1206;-85
2021/08/07 05:12:08;;;;;;;;;;;;;;;22.98;31.19;97219.41;5029905;28;1206;-84
2021/08/07 05:14:37;;;;;;;;;;;;;;;22.96;31.40;97204.13;5032546;28;1040;-85
2021/08/07 05:17:03;;;;;;;;;;;;;;;22.78;31.57;97210.53;5025899;28;1279;-87
2021/08/07 05:19:29;;;;;;;;;;;;;;;22.77;31.79;97204.09;5009182;28;1293;-86
2021/08/07 05:21:55;;;;;;;;;;;;;;;22.77;31.65;97209.75;5007752;28;1911;-83
2021/08/07 05:24:21;;;;;;;;;;;;;;;22.83;31.30;97212.75;5026062;28;1235;-86
2021/08/07 05:26:47;;;;;;;;;;;;;;;22.92;31.48;97226.19;5010570;28;1257;-87
2021/08/07 05:29:15;;;;;;;;;;;;;;;22.94;31.51;97235.00;5027143;28;1225;-87
2021/08/07 05:31:40;;;;;;;;;;;;;;;22.99;31.32;97248.56;5027304;28;1174;-87
2021/08/07 05:34:06;;;;;;;;;;;;;;;22.86;31.39;97252.31;5026087;28;987;-87
2021/08/07 05:36:32;;;;;;;;;;;;;;;22.74;31.60;97256.09;5027706;28;1166;-86
2021/08/07 05:38:58;;;;;;;;;;;;;;;22.76;31.56;97245.06;5027619;28;1186;-87
2021/08/07 05:41:24;;;;;;;;;;;;;;;22.91;31.22;97261.50;5027967;28;1878;-87
2021/08/07 05:43:49;;;;;;;;;;;;;;;22.85;31.39;97262.09;5042923;28;1063;-87
2021/08/07 05:46:16;;;;;;;;;;;;;;;22.97;31.46;97262.44;5027550;28;1321;-84
2021/08/07 05:48:41;;;;;;;;;;;;;;;23.01;31.21;97263.84;5010598;28;1231;-85
2021/08/07 05:51:07;;;;;;;;;;;;;;;22.85;31.63;97261.31;5028087;28;1433;-86
2021/08/07 05:53:33;;;;;;;;;;;;;;;22.95;31.32;97260.06;5027237;28;1217;-87
2021/08/07 05:55:59;;;;;;;;;;;;;;;22.85;31.52;97262.09;5027722;28;1209;-87
2021/08/07 05:58:26;;;;;;;;;;;;;;;22.92;31.41;97254.56;5043541;28;920;-87
2021/08/07 06:00:51;;;;;;;;;;;;;;;22.93;31.45;97256.13;5027026;28;1898;-86
2021/08/07 06:03:17;;;;;;;;;;;;;;;22.89;31.34;97256.28;5025042;28;1031;-86
2021/08/07 06:05:48;;;;;;;;;;;;;;;22.81;31.77;97255.78;5028196;28;1255;-87
2021/08/07 06:08:15;;;;;;;;;;;;;;;22.90;31.63;97262.72;5026708;28;1251;-87
2021/08/07 06:10:40;;;;;;;;;;;;;;;22.84;31.38;97266.16;5043580;28;615;-86
2021/08/07 06:13:07;;;;;;;;;;;;;;;22.85;31.34;97273.44;5027114;28;1303;-86
2021/08/07 06:15:33;;;;;;;;;;;;;;;22.94;31.45;97269.03;5026358;28;1218;-86
2021/08/07 06:18:00;;;;;;;;;;;;;;;22.92;31.32;97271.56;5025971;28;1331;-87
2021/08/07 06:20:27;;;;;;;;;;;;;;;22.90;31.30;97274.06;5027102;28;1975;-87
2021/08/07 06:22:56;;;;;;;;;;;;;;;22.90;31.58;97285.41;5043719;28;964;-86
2021/08/07 06:25:22;;;;;;;;;;;;;;;22.95;31.51;97277.09;5026903;28;1151;-86
2021/08/07 06:27:55;;;;;;;;;;;;;;;22.87;31.32;97290.75;5026109;28;1159;-86
2021/08/07 06:30:21;;;;;;;;;;;;;;;22.93;31.22;97287.31;5026734;28;1222;-87
2021/08/07 06:32:47;;;;;;;;;;;;;;;22.80;31.49;97290.28;5043196;28;1122;-87
2021/08/07 06:35:13;;;;;;;;;;;;;;;22.94;31.37;97291.72;5026672;28;1322;-87
2021/08/07 06:37:39;;;;;;;;;;;;;;;23.03;30.99;97300.25;5010408;28;1197;-86
2021/08/07 06:40:05;;;;;;;;;;;;;;;23.04;30.91;97293.31;5042734;28;1952;-87
2021/08/07 06:42:30;;;;;;;;;;;;;;;23.01;31.00;97297.13;5010073;28;1195;-87
2021/08/07 06:45:04;;;;;;;;;;;;;;;22.88;31.43;97303.72;5011927;28;1253;-87
2021/08/07 06:47:30;;;;;;;;;;;;;;;22.84;31.49;97305.88;5026471;28;1317;-87
2021/08/07 06:49:57;;;;;;;;;;;;;;;23.00;31.27;97304.03;5009844;28;1191;-86
2021/08/07 06:52:23;;;;;;;;;;;;;;;22.89;31.45;97301.66;5026542;28;1178;-87
2021/08/07 06:54:49;;;;;;;;;;;;;;;22.89;31.23;97298.81;5008938;28;1264;-86
2021/08/07 06:57:16;;;;;;;;;;;;;;;22.94;31.39;97294.56;5026410;28;1205;-87
2021/08/07 06:59:42;;;;;;;;;;;;;;;22.94;31.18;97297.41;5009688;28;1282;-87
2021/08/07 07:02:08;;;;;;;;;;;;;;;23.06;31.30;97293.66;5026491;28;1910;-86
2021/08/07 07:04:34;;;;;;;;;;;;;;;23.04;31.37;97296.16;5025787;28;1203;-87
2021/08/07 07:07:01;;;;;;;;;;;;;;;22.98;31.13;97292.38;5027182;28;1186;-87
2021/08/07 07:09:27;;;;;;;;;;;;;;;22.85;31.67;97301.00;5043060;28;904;-86
2021/08/07 07:11:53;;;;;;;;;;;;;;;22.87;31.60;97304.16;5042480;28;1081;-87
2021/08/07 07:14:18;;;;;;;;;;;;;;;22.92;31.37;97299.94;5026097;28;1135;-87
2021/08/07 07:16:44;;;;;;;;;;;;;;;22.99;31.32;97293.94;5010000;28;1159;-87
2021/08/07 07:19:09;;;;;;;;;;;;;;;22.94;31.31;97303.09;5042276;28;1207;-86
2021/08/07 07:21:35;;;;;;;;;;;;;;;23.02;31.31;97308.00;5025548;28;1914;-86
2021/08/07 07:24:00;;;;;;;;;;;;;;;22.90;31.27;97302.44;5041741;28;1259;-87
2021/08/07 07:26:27;;;;;;;;;;;;;;;23.02;31.29;97312.88;5025884;28;1281;-86
2021/08/07 07:28:57;;;;;;;;;;;;;;;23.07;30.82;97320.75;5025556;28;1223;-86
2021/08/07 07:31:22;;;;;;;;;;;;;;;23.12;31.07;97332.28;5026310;28;1146;-87
2021/08/07 07:33:48;;;;;;;;;;;;;;;23.03;31.13;97323.75;5025907;28;1210;-86
2021/08/07 07:36:14;;;;;;;;;;;;;;;22.87;31.25;97333.31;5042386;28;1546;-86
2021/08/07 07:38:40;;;;;;;;;;;;;;;22.92;31.18;97322.63;5008188;28;1226;-87
2021/08/07 07:41:07;;;;;;;;;;;;;;;22.94;31.39;97331.44;5026231;28;1972;-87
2021/08/07 07:43:32;;;;;;;;;;;;;;;22.97;31.04;97342.66;5024912;28;1352;-85
2021/08/07 07:45:58;;;;;;;;;;;;;;;22.98;31.27;97337.78;5026566;28;687;-86
2021/08/07 07:48:24;;;;;;;;;;;;;;;22.94;30.99;97334.28;5024946;28;1162;-86
2021/08/07 07:50:49;;;;;;;;;;;;;;;23.05;30.84;97337.44;5041741;28;849;-87
2021/08/07 07:53:15;;;;;;;;;;;;;;;23.00;31.12;97335.25;5024948;28;1226;-86
2021/08/07 07:55:41;;;;;;;;;;;;;;;22.94;31.12;97342.81;5026013;28;1169;-85
2021/08/07 07:58:07;;;;;;;;;;;;;;;22.92;31.15;97342.50;5040557;28;691;-86
2021/08/07 08:00:34;;;;;;;;;;;;;;;22.96;30.87;97346.75;5025188;28;1981;-85
2021/08/07 08:03:01;;;;;;;;;;;;;;;23.03;30.98;97357.78;5024988;28;1244;-86
2021/08/07 08:05:32;;;;;;;;;;;;;;;23.19;30.75;97347.41;5026309;28;1159;-87
2021/08/07 08:08:01;;;;;;;;;;;;;;;23.05;30.61;97354.47;5028482;28;1163;-86
2021/08/07 08:10:27;;;;;;;;;;;;;;;22.94;31.12;97356.97;5028609;28;1326;-86
2021/08/07 08:12:53;;;;;;;;;;;;;;;22.91;30.93;97364.41;5028839;28;1318;-85
2021/08/07 08:15:20;;;;;;;;;;;;;;;22.99;31.22;97362.03;5029092;28;1327;-85
2021/08/07 08:17:47;;;;;;;;;;;;;;;22.93;31.13;97378.09;5029207;28;1300;-87
2021/08/07 08:20:13;;;;;;;;;;;;;;;22.96;31.09;97380.03;5027844;28;1906;-86
2021/08/07 08:22:39;;;;;;;;;;;;;;;22.99;31.25;97384.72;5028676;28;1317;-86
2021/08/07 08:25:07;;;;;;;;;;;;;;;23.00;30.98;97383.47;5011396;28;1220;-86
2021/08/07 08:27:32;;;;;;;;;;;;;;;23.02;31.05;97390.28;5012324;28;1512;-86
2021/08/07 08:29:58;;;;;;;;;;;;;;;22.94;31.03;97388.97;5028510;28;1484;-86
2021/08/07 08:32:24;;;;;;;;;;;;;;;22.99;30.83;97379.06;5028696;28;1367;-86
2021/08/07 08:34:50;;;;;;;;;;;;;;;22.98;31.04;97383.16;5028070;28;1339;-86
2021/08/07 08:37:16;;;;;;;;;;;;;;;22.90;31.34;97393.22;5028305;28;1303;-86
2021/08/07 08:39:43;;;;;;;;;;;;;;;23.04;30.85;97393.41;5027996;28;1150;-86
2021/08/07 08:42:08;;;;;;;;;;;;;;;23.00;31.14;97397.66;5012334;28;1970;-86
2021/08/07 08:44:36;;;;;;;;;;;;;;;22.97;31.00;97401.44;5012034;28;1372;-86
2021/08/07 08:47:01;;;;;;;;;;;;;;;23.02;31.05;97398.00;5045087;28;1154;-87
2021/08/07 08:49:28;;;;;;;;;;;;;;;23.09;31.03;97400.53;5043928;28;1197;-86
2021/08/07 08:51:53;;;;;;;;;;;;;;;22.93;31.15;97397.97;5027970;28;1177;-86
2021/08/07 08:54:19;;;;;;;;;;;;;;;23.09;30.92;97411.88;5043404;28;917;-86
2021/08/07 08:56:45;;;;;;;;;;;;;;;23.03;30.82;97427.94;5011484;28;1167;-87
2021/08/07 08:59:11;;;;;;;;;;;;;;;23.13;30.94;97412.53;5044345;28;1192;-86
2021/08/07 09:01:37;;;;;;;;;;;;;;;23.10;30.89;97419.13;5027943;28;1910;-86
2021/08/07 09:04:04;;;;;;;;;;;;;;;23.02;30.94;97426.38;5027866;28;1303;-86
2021/08/07 09:06:34;;;;;;;;;;;;;;;23.05;30.67;97422.56;5027821;28;1356;-87
2021/08/07 09:09:03;;;;;;;;;;;;;;;23.14;30.47;97428.28;5043733;28;884;-86
2021/08/07 09:11:29;;;;;;;;;;;;;;;23.06;30.72;97427.03;5044713;28;1131;-86
2021/08/07 09:14:13;;;;;;;;;;;;;;;23.01;30.83;97439.78;5027922;28;1218;-86
2021/08/07 09:16:57;;;;;;;;;;;;;;;23.04;30.98;97443.69;5043479;28;1188;-86
2021/08/07 09:19:23;;;;;;;;;;;;;;;23.01;31.22;97444.66;5026512;28;1162;-86
2021/08/07 09:22:05;;;;;;;;;;;;;;;23.22;30.90;97443.75;5027194;28;1967;-86
2021/08/07 09:24:32;;;;;;;;;;;;;;;23.02;30.99;97447.03;5027027;28;1184;-86
2021/08/07 09:27:01;;;;;;;;;;;;;;;23.07;30.98;97437.88;5010919;28;1331;-86
2021/08/07 09:29:34;;;;;;;;;;;;;;;23.02;31.24;97451.91;5026974;28;1259;-86
2021/08/07 09:31:59;;;;;;;;;;;;;;;23.07;30.92;97452.09;5027606;28;1305;-86
2021/08/07 09:34:27;;;;;;;;;;;;;;;23.07;30.77;97445.63;5027524;28;1151;-86
2021/08/07 09:36:56;;;;;;;;;;;;;;;23.14;30.96;97453.81;5027695;28;1277;-86
2021/08/07 09:39:35;;;;;;;;;;;;;;;23.14;30.73;97442.47;5027498;28;1192;-86
2021/08/07 09:42:01;;;;;;;;;;;;;;;23.11;31.17;97460.44;5026894;28;1958;-86
2021/08/07 09:44:34;;;;;;;;;;;;;;;23.23;30.60;97462.38;5027606;28;1153;-86
2021/08/07 09:47:03;;;;;;;;;;;;;;;23.19;30.96;97461.72;5026942;28;1167;-86
2021/08/07 09:49:36;;;;;;;;;;;;;;;23.18;30.91;97465.81;5010286;28;1211;-85
2021/08/07 09:52:04;;;;;;;;;;;;;;;23.16;30.99;97467.53;5010570;28;1345;-85
2021/08/07 09:54:40;;;;;;;;;;;;;;;23.07;30.95;97476.84;5009408;28;1179;-86
2021/08/07 09:57:06;;;;;;;;;;;;;;;23.07;31.00;97471.94;5010140;28;1239;-85
2021/08/07 09:59:43;;;;;;;;;;;;;;;23.06;30.97;97475.25;5025983;28;1191;-85
2021/08/07 10:02:22;;;;;;;;;;;;;;;23.13;31.11;97469.28;5026429;28;1969;-85
2021/08/07 10:04:51;;;;;;;;;;;;;;;23.06;30.87;97469.59;5027104;28;1213;-85
2021/08/07 10:07:17;;;;;;;;;;;;;;;23.10;31.02;97478.72;5026331;28;1183;-86
2021/08/07 10:10:18;;;;;;;;;;;;;;;23.02;30.89;97485.94;5021511;28;1192;-86
2021/08/07 10:12:45;;;;;;;;;;;;;;;23.06;31.04;97480.94;5029773;28;1870;-86
2021/08/07 10:15:11;;;;;;;;;;;;;;;23.12;30.83;97479.06;5039498;28;1305;-86
2021/08/07 10:17:38;;;;;;;;;;;;;;;23.17;30.63;97480.50;5039694;28;1290;-87
2021/08/07 10:20:04;;;;;;;;;;;;;;;23.16;30.69;97485.38;5039406;28;1985;-87
2021/08/07 10:22:33;;;;;;;;;;;;;;;23.15;30.76;97483.78;5023056;28;1166;-86
2021/08/07 10:25:02;;;;;;;;;;;;;;;23.13;30.80;97489.16;5039373;28;1287;-85
2021/08/07 10:27:29;;;;;;;;;;;;;;;23.20;30.58;97486.00;5039395;28;1182;-86
2021/08/07 10:29:57;;;;;;;;;;;;;;;23.23;30.50;97485.06;5022732;28;1166;-87
2021/08/07 10:32:23;;;;;;;;;;;;;;;23.30;30.35;97489.66;5040560;28;1226;-87
2021/08/07 10:34:49;;;;;;;;;;;;;;;23.22;30.53;97482.72;5022387;28;1205;-86
2021/08/07 10:37:16;;;;;;;;;;;;;;;23.23;30.79;97490.75;5039348;28;1206;-87
2021/08/07 10:39:41;;;;;;;;;;;;;;;23.14;30.95;97477.31;5055639;28;856;-86
2021/08/07 10:42:07;;;;;;;;;;;;;;;23.16;30.67;97468.34;5040007;28;1952;-87
2021/08/07 10:44:33;;;;;;;;;;;;;;;23.23;30.70;97484.28;5022701;28;1284;-85
2021/08/07 10:46:58;;;;;;;;;;;;;;;23.16;30.93;97487.41;5038919;28;1310;-86
2021/08/07 10:49:40;;;;;;;;;;;;;;;23.17;31.03;97481.28;5037842;28;1213;-86
2021/08/07 10:52:21;;;;;;;;;;;;;;;23.19;30.91;97489.31;5023076;28;1217;-86
2021/08/07 10:54:47;;;;;;;;;;;;;;;23.23;31.07;97482.25;5022956;28;710;-86
2021/08/07 10:57:32;;;;;;;;;;;;;;;23.18;31.08;97477.19;5023661;28;1144;-86
2021/08/07 10:59:57;;;;;;;;;;;;;;;23.21;30.93;97473.41;5022604;28;1914;-86
2021/08/07 11:02:23;;;;;;;;;;;;;;;23.28;30.83;97481.63;5039293;28;844;-85
2021/08/07 11:04:49;;;;;;;;;;;;;;;23.38;30.71;97477.53;5022136;28;1173;-86
2021/08/07 11:07:20;;;;;;;;;;;;;;;23.35;30.61;97481.31;5054801;28;856;-86
2021/08/07 11:10:00;;;;;;;;;;;;;;;23.32;30.95;97470.91;5037862;28;930;-85
2021/08/07 11:12:25;;;;;;;;;;;;;;;23.23;31.09;97468.03;5054640;28;1236;-85
2021/08/07 11:14:57;;;;;;;;;;;;;;;23.19;31.07;97461.72;5054575;28;789;-85
2021/08/07 11:17:23;;;;;;;;;;;;;;;23.18;31.03;97471.50;5022259;28;1298;-86
2021/08/07 11:19:50;;;;;;;;;;;;;;;23.19;31.12;97463.78;5038076;28;811;-86
2021/08/07 11:22:15;;;;;;;;;;;;;;;23.31;30.83;97468.53;5055108;28;1980;-85
2021/08/07 11:24:44;;;;;;;;;;;;;;;23.33;30.92;97466.81;5054261;28;873;-87
2021/08/07 11:27:13;;;;;;;;;;;;;;;23.27;30.98;97476.41;5022460;28;855;-86
2021/08/07 11:29:57;;;;;;;;;;;;;;;23.16;30.93;97464.69;5038311;28;1151;-86
2021/08/07 11:32:24;;;;;;;;;;;;;;;23.15;30.82;97461.06;5022260;28;650;-86
2021/08/07 11:34:49;;;;;;;;;;;;;;;23.20;30.93;97477.50;5038259;28;1146;-86
2021/08/07 11:37:15;;;;;;;;;;;;;;;23.32;30.70;97473.75;5054976;28;992;-86
2021/08/07 11:39:59;;;;;;;;;;;;;;;23.18;30.81;97477.19;5038108;28;872;-86
2021/08/07 11:42:35;;;;;;;;;;;;;;;23.18;31.02;97465.81;5024827;28;709;-86
2021/08/07 11:45:00;;;;;;;;;;;;;;;23.22;30.90;97471.38;5042008;28;1297;-86
2021/08/07 11:47:26;;;;;;;;;;;;;;;23.31;30.61;97469.34;5042943;28;1156;-86
2021/08/07 11:49:52;;;;;;;;;;;;;;;23.25;30.98;97476.88;5058671;28;654;-86
2021/08/07 11:52:17;;;;;;;;;;;;;;;23.28;30.83;97464.59;5042247;28;1333;-86
2021/08/07 11:54:42;;;;;;;;;;;;;;;23.19;30.96;97466.59;5058210;28;868;-86
2021/08/07 11:57:21;;;;;;;;;;;;;;;23.18;30.79;97471.50;5042196;28;1290;-86
2021/08/07 11:59:46;;;;;;;;;;;;;;;23.14;30.78;97468.00;5041256;28;1313;-86
2021/08/07 12:02:15;;;;;;;;;;;;;;;23.17;30.93;97467.09;5057975;28;1985;-86
2021/08/07 12:04:43;;;;;;;;;;;;;;;23.15;30.77;97472.44;5024980;28;1296;-86
2021/08/07 12:07:09;;;;;;;;;;;;;;;23.22;30.92;97469.31;5041404;28;1299;-85
2021/08/07 12:09:34;;;;;;;;;;;;;;;23.26;30.59;97457.78;5024806;28;1308;-86
2021/08/07 12:12:03;;;;;;;;;;;;;;;23.25;30.97;97459.84;5025548;28;1348;-85
2021/08/07 12:14:29;;;;;;;;;;;;;;;23.30;30.89;97450.72;5057826;28;614;-86
2021/08/07 12:16:54;;;;;;;;;;;;;;;23.28;30.59;97463.81;5025320;28;1282;-86
2021/08/07 12:19:24;;;;;;;;;;;;;;;23.18;30.82;97480.00;5040796;28;833;-86
2021/08/07 12:21:50;;;;;;;;;;;;;;;23.19;30.99;97477.97;5040226;28;1918;-85
2021/08/07 12:24:23;;;;;;;;;;;;;;;23.15;31.14;97475.25;5056843;28;816;-85
2021/08/07 12:26:52;;;;;;;;;;;;;;;23.14;31.03;97480.16;5024553;28;1184;-84
2021/08/07 12:29:19;;;;;;;;;;;;;;;23.18;31.11;97480.00;5062937;28;1114;-86
2021/08/07 12:31:54;;;;;;;;;;;;;;;23.20;30.99;97486.00;5042107;28;1526;-85
2021/08/07 12:34:27;;;;;;;;;;;;;;;23.19;30.93;97490.09;5036941;28;1228;-86
2021/08/07 12:37:08;;;;;;;;;;;;;;;23.26;31.00;97495.50;5046080;28;1281;-84
2021/08/07 12:39:49;;;;;;;;;;;;;;;23.18;30.94;97491.38;5043226;28;1107;-86
2021/08/07 12:42:25;;;;;;;;;;;;;;;23.17;31.06;97494.69;5027440;28;1975;-85
2021/08/07 12:44:57;;;;;;;;;;;;;;;23.17;30.70;97491.84;5043488;28;1261;-83
2021/08/07 12:47:30;;;;;;;;;;;;;;;23.21;30.74;97493.28;5051272;28;1274;-86
2021/08/07 12:49:55;;;;;;;;;;;;;;;23.30;30.51;97501.81;5042880;28;1253;-83
2021/08/07 12:52:20;;;;;;;;;;;;;;;23.25;30.71;97496.75;5044068;28;1150;-86
2021/08/07 12:55:04;;;;;;;;;;;;;;;23.28;30.57;97495.81;5042572;28;888;-85
2021/08/07 12:57:32;;;;;;;;;;;;;;;23.13;30.89;97491.97;5028514;28;1365;-86
2021/08/07 12:59:57;;;;;;;;;;;;;;;23.27;30.53;97505.59;5027510;28;775;-86
2021/08/07 13:02:23;;;;;;;;;;;;;;;23.24;30.89;97502.91;5044588;28;1914;-86
2021/08/07 13:04:49;;;;;;;;;;;;;;;23.26;30.73;97503.19;5027559;28;1131;-86